createdAt,value
2023-04-16T00:01:05.244Z,11.04
2023-04-16T00:03:40.509Z,11.03
2023-04-16T00:06:10.099Z,11.03
2023-04-16T00:08:39.099Z,11.02
2023-04-16T00:11:08.556Z,11.01
2023-04-16T00:13:37.821Z,11.01
2023-04-16T00:16:07.040Z,11.01
2023-04-16T00:18:36.152Z,11.00
2023-04-16T00:21:07.899Z,11.00
2023-04-16T00:23:39.923Z,11.00
2023-04-16T00:26:11.749Z,11.00
2023-04-16T00:28:41.439Z,11.00
2023-04-16T00:31:43.070Z,10.99
2023-04-16T00:34:15.191Z,10.99
2023-04-16T00:37:07.782Z,11.00
2023-04-16T00:40:37.554Z,11.02
2023-04-16T00:43:06.802Z,11.04
2023-04-16T00:45:57.894Z,11.05
2023-04-16T00:48:33.371Z,11.08
2023-04-16T00:51:02.720Z,11.10
2023-04-16T00:53:35.353Z,11.11
2023-04-16T00:56:13.395Z,11.13
2023-04-16T00:58:43.306Z,11.13
2023-04-16T01:01:15.843Z,11.12
2023-04-16T01:03:49.972Z,11.13
2023-04-16T01:06:23.090Z,11.14
2023-04-16T01:08:52.422Z,11.16
2023-04-16T01:11:22.094Z,11.18
2023-04-16T01:13:51.273Z,11.19
2023-04-16T01:16:20.120Z,11.21
2023-04-16T01:18:49.008Z,11.22
2023-04-16T01:21:17.890Z,11.23
2023-04-16T01:23:46.960Z,11.24
2023-04-16T01:26:36.149Z,11.24
2023-04-16T01:29:15.284Z,11.24
2023-04-16T01:31:44.331Z,11.23
2023-04-16T01:34:16.115Z,11.23
2023-04-16T01:36:44.949Z,11.23
2023-04-16T01:39:16.797Z,11.21
2023-04-16T01:41:49.917Z,11.20
2023-04-16T01:44:18.946Z,11.21
2023-04-16T01:46:51.047Z,11.21
2023-04-16T01:49:19.946Z,11.22
2023-04-16T01:51:58.126Z,11.22
2023-04-16T01:54:34.171Z,11.23
2023-04-16T01:57:04.123Z,11.24
2023-04-16T01:59:33.100Z,11.25
2023-04-16T02:02:16.252Z,11.24
2023-04-16T02:04:47.506Z,11.21
2023-04-16T02:07:16.731Z,11.19
2023-04-16T02:09:45.835Z,11.19
2023-04-16T02:12:18.226Z,11.19
2023-04-16T02:14:47.696Z,11.17
2023-04-16T02:17:16.782Z,11.17
2023-04-16T02:19:46.207Z,11.16
2023-04-16T02:22:26.924Z,11.14
2023-04-16T02:24:59.531Z,11.13
2023-04-16T02:27:58.598Z,11.14
2023-04-16T02:30:37.706Z,11.12
2023-04-16T02:33:37.330Z,11.12
2023-04-16T02:36:11.567Z,11.13
2023-04-16T02:38:40.607Z,11.13
2023-04-16T02:41:09.593Z,11.10
2023-04-16T02:43:38.638Z,11.06
2023-04-16T02:46:07.988Z,11.04
2023-04-16T02:48:39.463Z,11.02
2023-04-16T02:51:08.738Z,11.00
2023-04-16T02:53:41.027Z,10.98
2023-04-16T02:56:10.515Z,10.94
2023-04-16T02:58:39.822Z,10.93
2023-04-16T03:01:09.032Z,10.91
2023-04-16T03:03:38.323Z,10.89
2023-04-16T03:06:07.530Z,10.87
2023-04-16T03:08:36.247Z,10.84
2023-04-16T03:11:11.184Z,10.82
2023-04-16T03:13:49.683Z,10.80
2023-04-16T03:16:18.665Z,10.77
2023-04-16T03:18:47.767Z,10.75
2023-04-16T03:21:19.907Z,10.72
2023-04-16T03:23:49.159Z,10.69
2023-04-16T03:26:18.389Z,10.66
2023-04-16T03:28:47.527Z,10.64
2023-04-16T03:31:19.914Z,10.61
2023-04-16T03:33:49.301Z,10.57
2023-04-16T03:36:23.904Z,10.55
2023-04-16T03:38:53.102Z,10.52
2023-04-16T03:41:22.303Z,10.51
2023-04-16T03:43:51.616Z,10.49
2023-04-16T03:46:20.852Z,10.47
2023-04-16T03:48:50.004Z,10.44
2023-04-16T03:51:19.106Z,10.42
2023-04-16T03:53:48.462Z,10.40
2023-04-16T03:56:23.680Z,10.39
2023-04-16T03:58:52.608Z,10.36
2023-04-16T04:01:21.744Z,10.35
2023-04-16T04:03:51.054Z,10.34
2023-04-16T04:06:30.428Z,10.32
2023-04-16T04:09:00.137Z,10.32
2023-04-16T04:11:29.202Z,10.32
2023-04-16T04:14:11.803Z,10.33
2023-04-16T04:17:04.109Z,10.33
2023-04-16T04:19:47.176Z,10.33
2023-04-16T04:22:26.441Z,10.33
2023-04-16T04:24:55.346Z,10.32
2023-04-16T04:27:43.127Z,10.32
2023-04-16T04:30:15.911Z,10.32
2023-04-16T04:32:50.699Z,10.32
2023-04-16T04:35:22.577Z,10.33
2023-04-16T04:37:55.030Z,10.34
2023-04-16T04:40:24.470Z,10.35
2023-04-16T04:42:53.634Z,10.35
2023-04-16T04:45:22.733Z,10.36
2023-04-16T04:47:52.148Z,10.36
2023-04-16T04:50:21.159Z,10.37
2023-04-16T04:52:52.737Z,10.37
2023-04-16T04:55:22.190Z,10.38
2023-04-16T04:57:51.720Z,10.39
2023-04-16T05:00:21.305Z,10.39
2023-04-16T05:02:53.576Z,10.40
2023-04-16T05:05:23.025Z,10.41
2023-04-16T05:07:52.278Z,10.41
2023-04-16T05:10:21.507Z,10.45
2023-04-16T05:12:50.758Z,10.46
2023-04-16T05:15:20.158Z,10.47
2023-04-16T05:17:57.388Z,10.48
2023-04-16T05:20:26.383Z,10.48
2023-04-16T05:22:56.376Z,10.49
2023-04-16T05:25:25.251Z,10.50
2023-04-16T05:28:07.641Z,10.50
2023-04-16T05:30:36.913Z,10.48
2023-04-16T05:33:06.247Z,10.46
2023-04-16T05:35:36.089Z,10.44
2023-04-16T05:38:08.494Z,10.43
2023-04-16T05:40:37.696Z,10.39
2023-04-16T05:43:10.073Z,10.39
2023-04-16T05:45:42.302Z,10.37
2023-04-16T05:48:11.599Z,10.35
2023-04-16T05:50:41.212Z,10.33
2023-04-16T05:53:12.071Z,10.32
2023-04-16T05:55:41.666Z,10.31
2023-04-16T05:58:13.454Z,10.29
2023-04-16T06:00:45.164Z,10.27
2023-04-16T06:03:14.540Z,10.26
2023-04-16T06:05:43.874Z,10.25
2023-04-16T06:08:17.728Z,10.24
2023-04-16T06:10:48.851Z,10.23
2023-04-16T06:13:18.277Z,10.22
2023-04-16T06:15:52.984Z,10.21
2023-04-16T06:18:25.633Z,10.18
2023-04-16T06:21:00.404Z,10.15
2023-04-16T06:24:19.890Z,10.11
2023-04-16T06:26:49.123Z,10.09
2023-04-16T06:29:24.154Z,10.06
2023-04-16T06:32:03.132Z,10.03
2023-04-16T06:34:33.037Z,9.99
2023-04-16T06:37:05.597Z,9.95
2023-04-16T06:39:38.652Z,9.90
2023-04-16T06:42:08.299Z,9.85
2023-04-16T06:44:49.811Z,9.81
2023-04-16T06:47:22.436Z,9.79
2023-04-16T06:49:53.944Z,9.77
2023-04-16T06:52:43.965Z,9.75
2023-04-16T06:55:13.396Z,9.72
2023-04-16T06:57:42.559Z,9.70
2023-04-16T07:00:12.813Z,9.68
2023-04-16T07:02:42.272Z,9.67
2023-04-16T07:05:11.864Z,9.64
2023-04-16T07:07:41.228Z,9.62
2023-04-16T07:10:11.034Z,9.61
2023-04-16T07:12:40.321Z,9.60
2023-04-16T07:15:20.491Z,9.58
2023-04-16T07:17:49.872Z,9.57
2023-04-16T07:20:19.211Z,9.57
2023-04-16T07:22:48.888Z,9.57
2023-04-16T07:25:18.198Z,9.58
2023-04-16T07:27:50.673Z,9.59
2023-04-16T07:30:19.695Z,9.59
2023-04-16T07:32:52.044Z,9.59
2023-04-16T07:35:24.091Z,9.57
2023-04-16T07:38:08.712Z,9.56
2023-04-16T07:40:52.761Z,9.55
2023-04-16T07:43:24.920Z,9.55
2023-04-16T07:45:54.059Z,9.56
2023-04-16T07:48:24.039Z,9.56
2023-04-16T07:50:53.545Z,9.55
2023-04-16T07:53:22.400Z,9.54
2023-04-16T07:55:54.494Z,9.53
2023-04-16T07:58:23.595Z,9.52
2023-04-16T08:00:55.727Z,9.52
2023-04-16T08:03:25.171Z,9.52
2023-04-16T08:05:54.334Z,9.52
2023-04-16T08:08:30.067Z,9.53
2023-04-16T08:11:07.526Z,9.52
2023-04-16T08:13:59.441Z,9.50
2023-04-16T08:17:28.585Z,9.47
2023-04-16T08:20:02.101Z,9.43
2023-04-16T08:22:31.650Z,9.39
2023-04-16T08:25:03.645Z,9.35
2023-04-16T08:27:33.088Z,9.34
2023-04-16T08:30:02.197Z,9.30
2023-04-16T08:32:31.396Z,9.26
2023-04-16T08:35:01.107Z,9.21
2023-04-16T08:37:31.796Z,9.18
2023-04-16T08:40:10.746Z,9.12
2023-04-16T08:43:19.969Z,9.08
2023-04-16T08:45:57.342Z,9.02
2023-04-16T08:48:26.827Z,8.99
2023-04-16T08:50:58.852Z,8.93
2023-04-16T08:53:43.096Z,8.83
2023-04-16T08:56:18.369Z,8.75
2023-04-16T08:58:57.413Z,8.70
2023-04-16T09:01:30.451Z,8.59
2023-04-16T09:04:03.141Z,8.50
2023-04-16T09:06:42.714Z,8.41
2023-04-16T09:09:14.099Z,8.35
2023-04-16T09:11:46.643Z,8.30
2023-04-16T09:14:23.173Z,8.28
2023-04-16T09:17:02.360Z,8.25
2023-04-16T09:19:31.729Z,8.21
2023-04-16T09:22:00.645Z,8.17
2023-04-16T09:24:34.094Z,8.15
2023-04-16T09:27:03.816Z,8.15
2023-04-16T09:29:42.822Z,8.14
2023-04-16T09:32:13.109Z,8.13
2023-04-16T09:35:04.731Z,8.13
2023-04-16T09:37:34.901Z,8.14
2023-04-16T09:40:05.718Z,8.14
2023-04-16T09:42:38.230Z,8.12
2023-04-16T09:45:14.481Z,8.11
2023-04-16T09:47:47.472Z,8.10
2023-04-16T09:50:41.519Z,8.11
2023-04-16T09:53:14.056Z,8.10
2023-04-16T09:55:57.456Z,8.10
2023-04-16T09:59:06.724Z,8.09
2023-04-16T10:02:15.392Z,8.07
2023-04-16T10:05:48.649Z,8.07
2023-04-16T10:09:18.178Z,8.08
2023-04-16T10:11:50.902Z,8.12
2023-04-16T10:14:20.150Z,8.14
2023-04-16T10:16:49.428Z,8.18
2023-04-16T10:19:43.234Z,8.22
2023-04-16T10:22:15.885Z,8.28
2023-04-16T10:24:46.609Z,8.34
2023-04-16T10:27:35.866Z,8.38
2023-04-16T10:30:08.424Z,8.42
2023-04-16T10:32:39.845Z,8.47
2023-04-16T10:35:09.540Z,8.51
2023-04-16T10:37:46.020Z,8.56
2023-04-16T10:40:26.436Z,8.62
2023-04-16T10:43:22.212Z,8.67
2023-04-16T10:45:55.373Z,8.72
2023-04-16T10:48:31.014Z,8.77
2023-04-16T10:51:07.787Z,8.81
2023-04-16T10:53:39.409Z,8.85
2023-04-16T10:56:08.766Z,8.88
2023-04-16T10:58:41.679Z,8.88
2023-04-16T11:01:18.317Z,8.87
2023-04-16T11:03:53.705Z,8.85
2023-04-16T11:06:30.568Z,8.84
2023-04-16T11:09:07.034Z,8.83
2023-04-16T11:11:41.065Z,8.84
2023-04-16T11:14:24.609Z,8.83
2023-04-16T11:16:53.856Z,8.81
2023-04-16T11:19:23.110Z,8.79
2023-04-16T11:21:53.160Z,8.78
2023-04-16T11:24:23.685Z,8.78
2023-04-16T11:26:54.492Z,8.77
2023-04-16T11:29:26.461Z,8.76
2023-04-16T11:32:00.992Z,8.76
2023-04-16T11:34:30.217Z,8.76
2023-04-16T11:36:59.335Z,8.76
2023-04-16T11:39:54.890Z,8.76
2023-04-16T11:42:27.949Z,8.77
2023-04-16T11:45:07.636Z,8.76
2023-04-16T11:47:52.955Z,8.75
2023-04-16T11:50:28.326Z,8.73
2023-04-16T11:53:19.204Z,8.71
2023-04-16T11:56:24.055Z,8.70
2023-04-16T12:00:01.313Z,8.69
2023-04-16T12:03:01.760Z,8.70
2023-04-16T12:05:31.882Z,8.72
2023-04-16T12:08:31.802Z,8.75
2023-04-16T12:11:03.820Z,8.77
2023-04-16T12:14:20.856Z,8.76
2023-04-16T12:16:54.480Z,8.74
2023-04-16T12:19:23.676Z,8.73
2023-04-16T12:22:04.998Z,8.72
2023-04-16T12:24:37.855Z,8.70
2023-04-16T12:27:07.756Z,8.67
2023-04-16T12:29:39.790Z,8.67
2023-04-16T12:32:24.379Z,8.68
2023-04-16T12:34:53.376Z,8.71
2023-04-16T12:37:25.929Z,8.72
2023-04-16T12:40:12.169Z,8.75
2023-04-16T12:42:53.741Z,8.79
2023-04-16T12:45:26.612Z,8.82
2023-04-16T12:48:02.010Z,8.86
2023-04-16T12:50:34.382Z,8.89
2023-04-16T12:53:03.525Z,8.91
2023-04-16T12:55:35.882Z,8.93
2023-04-16T12:58:08.980Z,8.93
2023-04-16T13:00:39.601Z,8.93
2023-04-16T13:03:08.950Z,8.93
2023-04-16T13:05:37.945Z,8.96
2023-04-16T13:08:17.629Z,8.99
2023-04-16T13:10:49.354Z,9.03
2023-04-16T13:13:27.356Z,9.06
2023-04-16T13:15:56.398Z,9.09
2023-04-16T13:18:29.521Z,9.10
2023-04-16T13:21:11.165Z,9.13
2023-04-16T13:23:44.326Z,9.16
2023-04-16T13:26:17.424Z,9.18
2023-04-16T13:28:58.177Z,9.20
2023-04-16T13:31:31.950Z,9.21
2023-04-16T13:34:07.112Z,9.22
2023-04-16T13:36:39.317Z,9.22
2023-04-16T13:39:20.314Z,9.19
2023-04-16T13:42:49.718Z,9.18
2023-04-16T13:46:18.773Z,9.17
2023-04-16T13:49:42.040Z,9.17
2023-04-16T13:52:14.755Z,9.17
2023-04-16T13:54:44.109Z,9.18
2023-04-16T13:57:22.260Z,9.19
2023-04-16T13:59:51.364Z,9.20
2023-04-16T14:02:20.459Z,9.20
2023-04-16T14:04:50.194Z,9.20
2023-04-16T14:07:23.561Z,9.20
2023-04-16T14:09:52.711Z,9.21
2023-04-16T14:12:22.281Z,9.22
2023-04-16T14:14:51.349Z,9.23
2023-04-16T14:17:20.602Z,9.24
2023-04-16T14:19:49.985Z,9.25
2023-04-16T14:22:19.003Z,9.27
2023-04-16T14:24:52.197Z,9.28
2023-04-16T14:27:24.599Z,9.30
2023-04-16T14:29:53.760Z,9.31
2023-04-16T14:32:25.834Z,9.31
2023-04-16T14:34:54.888Z,9.33
2023-04-16T14:37:24.221Z,9.35
2023-04-16T14:40:00.367Z,9.36
2023-04-16T14:42:28.876Z,9.38
2023-04-16T14:44:58.098Z,9.39
2023-04-16T14:47:27.454Z,9.39
2023-04-16T14:50:02.592Z,9.41
2023-04-16T14:52:35.874Z,9.42
2023-04-16T14:55:12.491Z,9.44
2023-04-16T14:57:44.143Z,9.45
2023-04-16T15:00:20.199Z,9.46
2023-04-16T15:02:55.808Z,9.46
2023-04-16T15:05:28.250Z,9.47
2023-04-16T15:07:57.447Z,9.47
2023-04-16T15:10:36.228Z,9.48
2023-04-16T15:13:07.997Z,9.50
2023-04-16T15:15:40.131Z,9.52
2023-04-16T15:18:12.254Z,9.54
2023-04-16T15:21:09.499Z,9.58
2023-04-16T15:23:55.094Z,9.61
2023-04-16T15:26:30.057Z,9.65
2023-04-16T15:28:59.447Z,9.68
2023-04-16T15:31:38.493Z,9.71
2023-04-16T15:34:33.639Z,9.74
2023-04-16T15:37:15.951Z,9.79
2023-04-16T15:39:55.230Z,9.83
2023-04-16T15:42:25.334Z,9.87
2023-04-16T15:45:03.242Z,9.88
2023-04-16T15:47:35.347Z,9.92
2023-04-16T15:50:08.224Z,9.95
2023-04-16T15:52:37.393Z,10.01
2023-04-16T15:55:13.949Z,10.05
2023-04-16T15:57:43.141Z,10.11
2023-04-16T16:00:23.642Z,10.15
2023-04-16T16:02:52.919Z,10.19
2023-04-16T16:05:25.244Z,10.24
2023-04-16T16:08:04.452Z,10.25
2023-04-16T16:10:36.697Z,10.27
2023-04-16T16:13:08.290Z,10.30
2023-04-16T16:15:40.171Z,10.32
2023-04-16T16:18:30.604Z,10.35
2023-04-16T16:21:00.252Z,10.38
2023-04-16T16:24:12.042Z,10.39
2023-04-16T16:26:49.946Z,10.38
2023-04-16T16:29:32.898Z,10.37
2023-04-16T16:32:12.196Z,10.35
2023-04-16T16:34:44.326Z,10.35
2023-04-16T16:37:16.316Z,10.36
2023-04-16T16:40:35.841Z,10.36
2023-04-16T16:43:05.228Z,10.35
2023-04-16T16:45:37.488Z,10.33
2023-04-16T16:48:47.147Z,10.27
2023-04-16T16:52:08.551Z,10.23
2023-04-16T16:55:38.861Z,10.18
2023-04-16T16:58:58.712Z,10.11
2023-04-16T17:02:29.107Z,10.06
2023-04-16T17:05:58.344Z,10.00
2023-04-16T17:09:27.791Z,9.92
2023-04-16T17:12:37.187Z,9.89
2023-04-16T17:16:06.387Z,9.86
2023-04-16T17:19:35.346Z,9.84
2023-04-16T17:22:57.450Z,9.81
2023-04-16T17:26:07.096Z,9.79
2023-04-16T17:29:36.823Z,9.76
2023-04-16T17:33:06.091Z,9.73
2023-04-16T17:36:18.343Z,9.67
2023-04-16T17:39:47.890Z,9.64
2023-04-16T17:43:16.159Z,9.58
2023-04-16T17:46:46.953Z,9.55
2023-04-16T17:50:16.228Z,9.53
2023-04-16T17:53:45.636Z,9.51
2023-04-16T17:57:15.273Z,9.50
2023-04-16T18:00:44.993Z,9.50
2023-04-16T18:04:15.480Z,9.49
2023-04-16T18:07:35.481Z,9.50
2023-04-16T18:10:48.400Z,9.54
2023-04-16T18:14:17.932Z,9.53
2023-04-16T18:17:50.555Z,9.51
2023-04-16T18:21:13.212Z,9.54
2023-04-16T18:24:32.548Z,9.56
2023-04-16T18:28:40.571Z,9.57
2023-04-16T18:31:28.663Z,9.60
2023-04-16T18:34:58.045Z,9.65
2023-04-16T18:38:18.273Z,9.70
2023-04-16T18:41:47.804Z,9.72
2023-04-16T18:45:05.657Z,9.74
2023-04-16T18:48:05.773Z,9.76
2023-04-16T18:51:29.041Z,9.76
2023-04-16T18:54:21.936Z,9.78
2023-04-16T18:57:51.769Z,9.74
2023-04-16T19:01:22.070Z,9.73
2023-04-16T19:04:04.971Z,9.75
2023-04-16T19:07:34.209Z,9.75
2023-04-16T19:10:51.593Z,9.77
2023-04-16T19:14:21.011Z,9.80
2023-04-16T19:17:50.293Z,9.81
2023-04-16T19:21:19.793Z,9.84
2023-04-16T19:24:49.365Z,9.84
2023-04-16T19:27:58.789Z,9.82
2023-04-16T19:30:53.139Z,9.79
2023-04-16T19:34:21.959Z,9.79
2023-04-16T19:37:51.306Z,9.78
2023-04-16T19:40:57.183Z,9.69
2023-04-16T19:43:55.279Z,9.60
2023-04-16T19:47:04.410Z,9.52
2023-04-16T19:50:34.819Z,9.45
2023-04-16T19:53:56.229Z,9.37
2023-04-16T19:57:25.699Z,9.34
2023-04-16T20:00:55.851Z,9.34
2023-04-16T20:04:09.026Z,9.33
2023-04-16T20:07:31.961Z,9.30
2023-04-16T20:11:01.514Z,9.23
2023-04-16T20:13:50.818Z,9.17
2023-04-16T20:17:00.280Z,9.15
2023-04-16T20:19:37.052Z,9.15
2023-04-16T20:22:27.226Z,9.15
2023-04-16T20:25:02.352Z,9.15
2023-04-16T20:28:11.268Z,9.17
2023-04-16T20:30:40.824Z,9.18
2023-04-16T20:33:13.142Z,9.19
2023-04-16T20:35:57.362Z,9.20
2023-04-16T20:38:50.141Z,9.22
2023-04-16T20:41:58.477Z,9.18
2023-04-16T20:45:07.754Z,9.16
2023-04-16T20:48:36.687Z,9.13
2023-04-16T20:52:06.126Z,9.14
2023-04-16T20:55:36.182Z,9.19
2023-04-16T20:59:05.555Z,9.25
2023-04-16T21:02:35.010Z,9.35
2023-04-16T21:05:47.995Z,9.44
2023-04-16T21:09:06.138Z,9.51
2023-04-16T21:12:35.352Z,9.58
2023-04-16T21:16:05.304Z,9.64
2023-04-16T21:18:47.474Z,9.75
2023-04-16T21:21:16.911Z,9.79
2023-04-16T21:24:26.278Z,9.84
2023-04-16T21:27:55.813Z,9.92
2023-04-16T21:30:34.670Z,10.06
2023-04-16T21:33:14.317Z,10.14
2023-04-16T21:36:23.556Z,10.22
2023-04-16T21:39:18.443Z,10.31
2023-04-16T21:42:28.882Z,10.41
2023-04-16T21:45:07.625Z,10.49
2023-04-16T21:48:13.256Z,10.53
2023-04-16T21:51:07.343Z,10.63
2023-04-16T21:53:39.637Z,10.72
2023-04-16T21:56:43.207Z,10.75
2023-04-16T22:00:12.759Z,10.80
2023-04-16T22:03:48.284Z,10.85
2023-04-16T22:06:19.060Z,10.91
2023-04-16T22:08:52.913Z,10.92
2023-04-16T22:11:25.902Z,10.94
2023-04-16T22:14:55.750Z,10.98
2023-04-16T22:17:35.275Z,11.03
2023-04-16T22:21:05.682Z,11.08
2023-04-16T22:23:34.976Z,11.15
2023-04-16T22:26:05.273Z,11.18
2023-04-16T22:28:37.251Z,11.22
2023-04-16T22:31:12.778Z,11.20
2023-04-16T22:34:22.304Z,11.19
2023-04-16T22:37:06.716Z,11.19
2023-04-16T22:39:59.333Z,11.22
2023-04-16T22:43:08.528Z,11.23
2023-04-16T22:45:38.634Z,11.20
2023-04-16T22:48:08.143Z,11.20
2023-04-16T22:50:37.496Z,11.21
2023-04-16T22:53:11.938Z,11.24
2023-04-16T22:56:32.644Z,11.23
2023-04-16T22:59:51.988Z,11.21
2023-04-16T23:03:11.645Z,11.13
2023-04-16T23:06:24.079Z,11.04
2023-04-16T23:09:53.610Z,10.98
2023-04-16T23:12:25.977Z,10.89
2023-04-16T23:15:07.581Z,10.83
2023-04-16T23:18:37.157Z,10.78
2023-04-16T23:21:46.263Z,10.67
2023-04-16T23:24:15.238Z,10.56
2023-04-16T23:26:57.507Z,10.48
2023-04-16T23:29:50.007Z,10.40
2023-04-16T23:32:22.115Z,10.36
2023-04-16T23:35:21.594Z,10.36
2023-04-16T23:37:54.552Z,10.36
2023-04-16T23:40:44.032Z,10.35
2023-04-16T23:44:14.515Z,10.33
2023-04-16T23:46:53.444Z,10.33
2023-04-16T23:49:25.344Z,10.37
2023-04-16T23:51:55.166Z,10.43
2023-04-16T23:54:38.029Z,10.48
2023-04-16T23:57:37.493Z,10.49
